createdAt,value
2022-11-01T00:00:00.000Z,11.52
2022-11-01T00:15:00.000Z,13.45
2022-11-01T00:30:00.000Z,12.66
2022-11-01T00:45:00.000Z,12.89
2022-11-01T01:00:00.000Z,12.08
2022-11-01T01:15:00.000Z,12.09
2022-11-01T01:30:00.000Z,12.12
2022-11-01T01:45:00.000Z,12.05
2022-11-01T02:00:00.000Z,12.51
2022-11-01T02:15:00.000Z,12.99
2022-11-01T02:30:00.000Z,12.44
2022-11-01T02:45:00.000Z,10.89
2022-11-01T03:15:00.000Z,9.83
2022-11-01T03:15:00.000Z,10.41
2022-11-01T03:30:00.000Z,10.39
2022-11-01T03:45:00.000Z,10.37
2022-11-01T04:00:00.000Z,10.8
2022-11-01T04:15:00.000Z,11.64
2022-11-01T04:30:00.000Z,11.56
2022-11-01T04:45:00.000Z,12.39
2022-11-01T05:00:00.000Z,13.22
2022-11-01T05:15:00.000Z,12.16
2022-11-01T05:30:00.000Z,12.64
2022-11-01T05:45:00.000Z,12.78
2022-11-01T06:00:00.000Z,12.58
2022-11-01T06:15:00.000Z,11.85
2022-11-01T06:30:00.000Z,11.66
2022-11-01T06:45:00.000Z,11.19
2022-11-01T07:00:00.000Z,9.92
2022-11-01T07:15:00.000Z,11.01
2022-11-01T07:30:00.000Z,11.34
2022-11-01T07:45:00.000Z,9.38
2022-11-01T08:00:00.000Z,10.72
2022-11-01T08:15:00.000Z,11.19
2022-11-01T08:30:00.000Z,10.64
2022-11-01T08:45:00.000Z,9.01
2022-11-01T09:00:00.000Z,8.53
2022-11-01T09:15:00.000Z,7.49
2022-11-01T09:30:00.000Z,7.64
2022-11-01T09:45:00.000Z,6.88
2022-11-01T10:00:00.000Z,8.4
2022-11-01T10:15:00.000Z,7.46
2022-11-01T10:30:00.000Z,5.91
2022-11-01T10:45:00.000Z,5.19
2022-11-01T11:00:00.000Z,5.21
2022-11-01T11:15:00.000Z,5.27
2022-11-01T11:30:00.000Z,5.88
2022-11-01T11:45:00.000Z,5.39
2022-11-01T12:00:00.000Z,4.93
2022-11-01T12:15:00.000Z,5.29
2022-11-01T12:30:00.000Z,4.75
2022-11-01T12:45:00.000Z,5.07
2022-11-01T13:00:00.000Z,5.29
2022-11-01T13:15:00.000Z,5.07
2022-11-01T13:30:00.000Z,5.09
2022-11-01T13:45:00.000Z,5.12
2022-11-01T14:00:00.000Z,6.76
2022-11-01T14:15:00.000Z,6.15
2022-11-01T14:30:00.000Z,7.8
2022-11-01T14:45:00.000Z,7.15
2022-11-01T15:00:00.000Z,11.59
2022-11-01T15:15:00.000Z,14.16
2022-11-01T15:30:00.000Z,14.08
2022-11-01T15:45:00.000Z,13.26
2022-11-01T16:00:00.000Z,10.44
2022-11-01T16:15:00.000Z,23.08
2022-11-01T16:30:00.000Z,17.31
2022-11-01T16:45:00.000Z,9.75
2022-11-01T17:00:00.000Z,10.86
2022-11-01T17:15:00.000Z,10.79
2022-11-01T17:30:00.000Z,11.11
2022-11-01T17:45:00.000Z,11.81
2022-11-01T18:00:00.000Z,15.11
2022-11-01T18:15:00.000Z,13.26
2022-11-01T18:30:00.000Z,14.11
2022-11-01T18:45:00.000Z,14.62
2022-11-01T19:00:00.000Z,15.14
2022-11-01T19:30:00.000Z,14
2022-11-01T19:30:00.000Z,17.36
2022-11-01T19:45:00.000Z,17.38
2022-11-01T20:00:00.000Z,21.56
2022-11-01T20:15:00.000Z,18.73
2022-11-01T20:30:00.000Z,16.41
2022-11-01T20:45:00.000Z,16.33
2022-11-01T21:00:00.000Z,19.54
2022-11-01T21:15:00.000Z,18.04
2022-11-01T21:30:00.000Z,17.02
2022-11-01T21:45:00.000Z,16.46
2022-11-01T22:00:00.000Z,15.21
2022-11-01T22:15:00.000Z,16.08
2022-11-01T22:30:00.000Z,15.98
2022-11-01T22:45:00.000Z,16.64
2022-11-01T23:00:00.000Z,16.92
2022-11-01T23:15:00.000Z,15.33
2022-11-01T23:30:00.000Z,15.12
2022-11-01T23:45:00.000Z,15.09
